Time;durP1;ratioP1;P1;durP2;ratioP2;P2;SDS_P1;SDS_P2;PMS_P1;PMS_P2;Temp;Humidity;BMP_temperature;BMP_pressure;BME280_temperature;BME280_humidity;BME280_pressure;Samples;Min_cycle;Max_cycle;Signal;HPM_P1;HPM_P2
2023/07/07 00:02:04;;;;;;;8.82;6.53;;;16.10;99.90;;;;;;10453902;28;20248;-90
2023/07/07 00:07:25;;;;;;;10.35;6.75;;;16.00;29.00;;;;;;10466878;28;20201;-82
2023/07/07 00:12:47;;;;;;;8.63;6.20;;;16.00;99.90;;;;;;10461116;28;20230;-87
2023/07/07 00:18:09;;;;;;;10.98;6.25;;;16.00;99.30;;;;;;10450764;28;20230;-88
2023/07/07 00:23:32;;;;;;;8.95;5.53;;;15.90;1.00;;;;;;10451543;28;20203;-83
2023/07/07 00:28:53;;;;;;;8.90;5.55;;;15.80;1.00;;;;;;10464210;28;20213;-87
2023/07/07 00:34:14;;;;;;;9.10;5.95;;;15.80;99.90;;;;;;10424540;28;20232;-89
2023/07/07 00:39:36;;;;;;;8.27;5.95;;;15.80;99.90;;;;;;10410563;28;20202;-91
2023/07/07 00:45:12;;;;;;;9.77;6.32;;;15.70;1.00;;;;;;10437070;28;20227;-87
2023/07/07 00:50:41;;;;;;;11.48;6.75;;;15.60;90.30;;;;;;10453242;28;20249;-83
2023/07/07 00:56:08;;;;;;;9.07;5.82;;;15.60;99.90;;;;;;10451057;28;20229;-85
2023/07/07 01:01:30;;;;;;;7.85;5.68;;;15.60;1.00;;;;;;10442638;28;20271;-87
2023/07/07 01:07:04;;;;;;;6.88;5.07;;;15.50;1.00;;;;;;10453033;28;20209;-88
2023/07/07 01:12:25;;;;;;;7.90;5.43;;;15.40;1.00;;;;;;10478207;28;20232;-89
2023/07/07 01:18:05;;;;;;;8.20;5.07;;;15.30;99.90;;;;;;10443428;28;20241;-91
2023/07/07 01:23:43;;;;;;;7.57;5.45;;;15.30;1.00;;;;;;10426855;28;20205;-84
2023/07/07 01:29:28;;;;;;;9.98;6.43;;;15.30;57.30;;;;;;10449891;28;20229;-82
2023/07/07 01:34:55;;;;;;;12.30;7.97;;;15.20;99.90;;;;;;10453388;28;20236;-89
2023/07/07 01:40:17;;;;;;;12.32;7.20;;;15.10;99.90;;;;;;10477646;28;20232;-88
2023/07/07 01:45:55;;;;;;;12.60;7.05;;;15.00;1.00;;;;;;10462000;28;20198;-90
2023/07/07 01:51:22;;;;;;;8.10;5.93;;;15.00;11.40;;;;;;10476849;28;20241;-90
2023/07/07 01:56:46;;;;;;;11.32;6.13;;;14.90;1.00;;;;;;10477732;28;20203;-84
2023/07/07 02:02:08;;;;;;;14.85;6.28;;;14.90;99.90;;;;;;10474899;28;20444;-83
2023/07/07 02:07:29;;;;;;;9.63;6.40;;;14.80;1.00;;;;;;10471285;28;20256;-92
2023/07/07 02:12:51;;;;;;;8.98;5.93;;;14.80;1.00;;;;;;10457877;28;20230;-87
2023/07/07 02:18:12;;;;;;;10.80;6.68;;;14.70;1.00;;;;;;10448025;28;20302;-84
2023/07/07 02:23:33;;;;;;;8.27;6.15;;;14.60;32.40;;;;;;10470335;28;20505;-86
2023/07/07 02:28:55;;;;;;;11.63;6.70;;;14.60;1.00;;;;;;10447016;28;20260;-82
2023/07/07 02:34:16;;;;;;;8.82;5.40;;;14.50;99.90;;;;;;10460224;28;20229;-89
2023/07/07 02:39:40;;;;;;;7.85;5.82;;;14.50;99.90;;;;;;10445195;28;20440;-82
2023/07/07 02:45:03;;;;;;;9.07;5.50;;;14.40;25.50;;;;;;10442501;28;20212;-83
2023/07/07 02:50:24;;;;;;;7.85;5.68;;;14.40;1.00;;;;;;10455956;28;20232;-89
2023/07/07 02:55:46;;;;;;;10.52;5.20;;;14.40;1.00;;;;;;10443632;28;20240;-91
2023/07/07 03:01:16;;;;;;;7.10;5.07;;;14.30;1.00;;;;;;10468586;28;20447;-87
2023/07/07 03:06:38;;;;;;;7.65;4.97;;;14.40;99.90;;;;;;10474915;28;20210;-85
2023/07/07 03:12:01;;;;;;;8.05;5.18;;;14.40;1.00;;;;;;10457000;28;20249;-89
2023/07/07 03:17:23;;;;;;;8.45;5.47;;;14.40;1.00;;;;;;10441065;28;20394;-90
2023/07/07 03:22:46;;;;;;;8.85;5.22;;;14.50;1.00;;;;;;10440721;28;20251;-83
2023/07/07 03:28:09;;;;;;;6.85;5.07;;;14.50;99.90;;;;;;10482865;28;20266;-88
2023/07/07 03:33:34;;;;;;;5.32;4.80;;;14.50;1.00;;;;;;10463512;28;20229;-83
2023/07/07 03:38:57;;;;;;;7.03;5.05;;;14.50;1.00;;;;;;10441827;28;20205;-88
2023/07/07 03:44:19;;;;;;;7.88;5.20;;;14.50;99.90;;;;;;10428167;28;20202;-91
2023/07/07 03:49:40;;;;;;;8.82;5.60;;;14.50;99.90;;;;;;10434057;28;20254;-90
2023/07/07 03:55:04;;;;;;;5.88;5.10;;;14.60;2.10;;;;;;10457619;28;20313;-91
2023/07/07 04:00:25;;;;;;;7.32;5.32;;;14.60;99.90;;;;;;10467106;28;20198;-82
2023/07/07 04:05:49;;;;;;;8.45;5.30;;;14.60;99.90;;;;;;10479206;28;20201;-90
2023/07/07 04:11:14;;;;;;;8.95;5.85;;;14.70;1.00;;;;;;10454014;28;20588;-83
2023/07/07 04:16:35;;;;;;;10.25;5.95;;;14.80;1.00;;;;;;10465447;28;20210;-87
2023/07/07 04:21:56;;;;;;;9.00;5.35;;;14.90;1.00;;;;;;10444996;28;20221;-82
2023/07/07 04:27:18;;;;;;;8.88;5.60;;;15.00;1.00;;;;;;10465111;28;20251;-82
2023/07/07 04:32:40;;;;;;;6.20;5.00;;;15.20;99.90;;;;;;10465296;28;20227;-89
2023/07/07 04:38:01;;;;;;;9.80;5.28;;;15.40;66.70;;;;;;10460294;28;20215;-86
2023/07/07 04:43:23;;;;;;;9.20;5.75;;;15.60;99.90;;;;;;10498024;28;20201;-87
2023/07/07 04:48:44;;;;;;;12.95;6.45;;;15.70;1.00;;;;;;10464121;28;20254;-82
2023/07/07 04:54:09;;;;;;;6.78;5.55;;;15.80;11.00;;;;;;10447530;28;20242;-89
2023/07/07 04:59:31;;;;;;;9.30;5.75;;;15.90;1.00;;;;;;10469913;28;20198;-82
2023/07/07 05:04:52;;;;;;;6.22;5.28;;;16.10;1.00;;;;;;10464423;28;20193;-83
2023/07/07 05:10:13;;;;;;;8.82;6.00;;;16.20;99.90;;;;;;10432485;28;20195;-90
2023/07/07 05:15:35;;;;;;;6.50;4.97;;;16.30;1.00;;;;;;10444763;28;20246;-83
2023/07/07 05:20:56;;;;;;;7.63;4.72;;;16.50;1.00;;;;;;10464506;28;20269;-85
2023/07/07 05:26:22;;;;;;;4.57;3.97;;;16.60;1.00;;;;;;10465443;28;20199;-91
2023/07/07 05:31:44;;;;;;;5.53;3.90;;;16.80;1.00;;;;;;10457644;28;20218;-91
2023/07/07 05:37:05;;;;;;;4.35;3.28;;;17.00;99.90;;;;;;10463673;28;20267;-83
2023/07/07 05:42:28;;;;;;;3.75;2.85;;;17.10;1.00;;;;;;10449773;28;20284;-83
2023/07/07 05:47:49;;;;;;;4.05;2.70;;;17.20;1.00;;;;;;10479709;28;20282;-82
2023/07/07 05:53:11;;;;;;;3.20;2.70;;;17.30;1.00;;;;;;10496262;28;20243;-85
2023/07/07 05:58:32;;;;;;;3.85;2.53;;;17.40;99.90;;;;;;10488427;28;20198;-83
2023/07/07 06:03:54;;;;;;;4.38;2.63;;;17.60;1.00;;;;;;10472258;28;20290;-89
2023/07/07 06:09:15;;;;;;;2.80;2.50;;;17.80;99.90;;;;;;10506431;28;20206;-88
2023/07/07 06:14:37;;;;;;;4.30;2.88;;;17.90;99.90;;;;;;10465884;28;20236;-82
2023/07/07 06:19:59;;;;;;;4.38;3.15;;;18.00;99.90;;;;;;10491055;28;20217;-85
2023/07/07 06:25:20;;;;;;;4.10;3.00;;;18.20;99.90;;;;;;10462818;28;20203;-88
2023/07/07 06:30:42;;;;;;;3.08;2.58;;;18.40;99.90;;;;;;10486308;28;20416;-89
2023/07/07 06:36:03;;;;;;;6.28;3.00;;;18.60;99.90;;;;;;10491745;28;20525;-87
2023/07/07 06:41:25;;;;;;;5.10;3.00;;;18.90;1.00;;;;;;10489784;28;20188;-89
2023/07/07 06:46:46;;;;;;;3.72;2.53;;;19.40;1.00;;;;;;10443114;28;20542;-82
2023/07/07 06:52:07;;;;;;;5.95;2.63;;;19.90;1.00;;;;;;10437501;28;20236;-86
2023/07/07 06:57:29;;;;;;;5.22;2.80;;;20.50;1.00;;;;;;10474833;28;20198;-91
2023/07/07 07:02:50;;;;;;;3.05;2.47;;;21.20;1.00;;;;;;10428918;28;20218;-91
2023/07/07 07:08:12;;;;;;;2.85;1.80;;;21.80;1.00;;;;;;10456344;28;20211;-91
2023/07/07 07:13:33;;;;;;;9.23;2.25;;;22.50;99.90;;;;;;10446122;28;20273;-87
2023/07/07 07:18:54;;;;;;;1.60;1.50;;;23.10;99.90;;;;;;10476442;28;20206;-85
2023/07/07 07:24:18;;;;;;;5.00;2.33;;;23.50;99.90;;;;;;10454212;28;20187;-83
2023/07/07 07:29:43;;;;;;;6.25;2.40;;;23.90;99.90;;;;;;10477386;28;20215;-86
2023/07/07 07:35:05;;;;;;;2.60;1.92;;;24.10;99.90;;;;;;10474627;28;20449;-85
2023/07/07 07:40:27;;;;;;;5.28;2.17;;;24.40;99.90;;;;;;10431439;28;20710;-81
2023/07/07 07:45:48;;;;;;;2.63;1.92;;;24.70;99.90;;;;;;10472591;28;20379;-83
2023/07/07 07:51:09;;;;;;;3.53;1.88;;;25.10;99.90;;;;;;10457387;28;20322;-82
2023/07/07 07:56:34;;;;;;;4.88;1.80;;;24.50;99.90;;;;;;10461300;28;20203;-83
2023/07/07 08:01:55;;;;;;;3.65;1.48;;;24.80;99.90;;;;;;10425652;28;20234;-83
2023/07/07 08:07:16;;;;;;;4.20;1.90;;;25.50;99.90;;;;;;10463371;28;20211;-82
2023/07/07 08:12:38;;;;;;;2.80;1.70;;;25.30;99.90;;;;;;10448250;28;20223;-84
2023/07/07 08:17:59;;;;;;;1.98;1.60;;;25.60;99.90;;;;;;10432038;28;20515;-82
2023/07/07 08:23:20;;;;;;;3.58;1.60;;;26.00;99.90;;;;;;10448038;28;20227;-84
2023/07/07 08:28:42;;;;;;;1.90;1.50;;;26.20;99.90;;;;;;10439918;28;20231;-92
2023/07/07 08:34:06;;;;;;;2.30;1.23;;;26.20;99.90;;;;;;10479737;28;20692;-91
2023/07/07 08:39:29;;;;;;;2.40;1.30;;;;;;;;;;10478049;28;20194;-85
2023/07/07 08:44:51;;;;;;;2.95;1.92;;;25.20;99.90;;;;;;10474194;28;20235;-83
2023/07/07 08:50:51;;;;;;;3.00;1.60;;;25.20;99.90;;;;;;10428589;28;20327;-83
2023/07/07 08:56:31;;;;;;;3.08;1.83;;;26.20;99.90;;;;;;10419994;28;20235;-85
2023/07/07 09:02:07;;;;;;;3.00;1.25;;;26.50;99.90;;;;;;10464264;28;20207;-83
2023/07/07 09:07:47;;;;;;;3.13;1.60;;;26.20;99.90;;;;;;10472627;28;20272;-85
2023/07/07 09:13:21;;;;;;;4.05;1.58;;;26.80;99.90;;;;;;10427627;28;20255;-87
2023/07/07 09:18:57;;;;;;;1.40;1.27;;;26.80;99.90;;;;;;10478803;28;20506;-90
2023/07/07 09:24:29;;;;;;;3.80;1.50;;;26.20;99.90;;;;;;10460303;28;20246;-85
2023/07/07 09:30:05;;;;;;;1.95;1.25;;;26.00;99.90;;;;;;10476986;28;20199;-89
2023/07/07 09:35:31;;;;;;;1.70;1.50;;;25.80;99.90;;;;;;10434811;28;20228;-84
2023/07/07 09:40:59;;;;;;;3.08;1.42;;;26.50;99.90;;;;;;10442083;28;20192;-87
2023/07/07 09:46:20;;;;;;;2.92;1.83;;;26.40;99.90;;;;;;10457715;28;20206;-84
2023/07/07 09:52:00;;;;;;;3.65;1.60;;;27.00;99.90;;;;;;10460734;28;20270;-85
2023/07/07 09:57:49;;;;;;;2.72;1.65;;;27.50;99.90;;;;;;10458131;28;20290;-88
2023/07/07 10:03:41;;;;;;;3.42;1.77;;;27.20;99.90;;;;;;10438076;28;20204;-86
2023/07/07 10:09:03;;;;;;;2.67;1.40;;;;;;;;;;10438702;28;20223;-84
2023/07/07 10:14:26;;;;;;;2.75;1.40;;;;;;;;;;10441903;28;20220;-85
2023/07/07 10:19:56;;;;;;;10.20;2.72;;;28.50;99.90;;;;;;10436624;28;20212;-88
2023/07/07 10:25:19;;;;;;;4.43;1.52;;;28.60;99.90;;;;;;10417797;28;20228;-85
2023/07/07 10:30:43;;;;;;;3.83;1.48;;;28.80;99.90;;;;;;10438118;28;20226;-82
2023/07/07 10:36:40;;;;;;;3.22;1.55;;;28.70;99.90;;;;;;10443854;28;20220;-84
2023/07/07 10:42:02;;;;;;;3.47;1.30;;;28.00;99.90;;;;;;10356531;28;20260;-91
2023/07/07 10:47:29;;;;;;;2.35;1.30;;;27.80;99.90;;;;;;10370609;28;20428;-83
2023/07/07 10:53:19;;;;;;;4.75;1.58;;;28.20;99.90;;;;;;10384407;28;20251;-87
2023/07/07 10:59:14;;;;;;;1.60;1.30;;;27.40;99.90;;;;;;10375928;28;20209;-87
2023/07/07 11:04:37;;;;;;;7.82;1.27;;;28.00;99.90;;;;;;10392746;28;20312;-86
2023/07/07 11:10:28;;;;;;;3.03;1.20;;;28.60;99.90;;;;;;10380528;28;20202;-88
2023/07/07 11:16:18;;;;;;;1.73;1.25;;;29.00;99.90;;;;;;10411227;28;20207;-82
2023/07/07 11:21:51;;;;;;;1.33;1.23;;;28.90;99.90;;;;;;10438679;28;20463;-83
2023/07/07 11:27:41;;;;;;;2.00;1.25;;;29.10;99.90;;;;;;10452808;28;20395;-89
2023/07/07 11:33:21;;;;;;;3.83;1.70;;;29.10;99.90;;;;;;10467461;28;20192;-88
2023/07/07 11:38:42;;;;;;;2.40;1.20;;;29.30;99.90;;;;;;10450099;28;20203;-90
2023/07/07 11:44:41;;;;;;;1.88;1.10;;;29.60;99.90;;;;;;10477480;28;20226;-85
2023/07/07 11:50:17;;;;;;;1.30;1.00;;;29.90;99.90;;;;;;10450204;28;20224;-89
2023/07/07 11:56:27;;;;;;;3.20;1.25;;;29.60;99.90;;;;;;10463758;28;20499;-89
2023/07/07 12:01:52;;;;;;;1.70;1.08;;;29.50;99.90;;;;;;10326735;28;20214;-88
2023/07/07 12:07:24;;;;;;;1.10;0.90;;;29.40;99.90;;;;;;10374843;28;20219;-91
2023/07/07 12:12:49;;;;;;;2.40;1.00;;;29.40;99.90;;;;;;10359949;28;20220;-89
2023/07/07 12:18:19;;;;;;;1.30;0.93;;;29.40;99.90;;;;;;10376034;28;20264;-89
2023/07/07 12:23:48;;;;;;;1.45;0.80;;;29.40;99.90;;;;;;10394773;28;20325;-93
2023/07/07 12:29:15;;;;;;;0.90;0.80;;;29.10;99.90;;;;;;10371488;28;20280;-93
2023/07/07 12:34:40;;;;;;;4.32;0.90;;;29.20;99.90;;;;;;10385885;28;20314;-91
2023/07/07 12:40:24;;;;;;;2.47;1.00;;;29.00;99.90;;;;;;10466922;28;20221;-90
2023/07/07 12:45:48;;;;;;;1.08;0.98;;;29.20;99.90;;;;;;10496927;28;20215;-90
2023/07/07 12:51:10;;;;;;;1.88;0.90;;;29.30;99.90;;;;;;10452596;28;20232;-96
2023/07/07 12:56:31;;;;;;;0.95;0.95;;;29.30;99.90;;;;;;10477703;28;20222;-93
2023/07/07 13:02:18;;;;;;;3.70;1.48;;;29.10;99.90;;;;;;10496862;28;20267;-86
2023/07/07 13:07:40;;;;;;;1.20;0.90;;;29.20;99.90;;;;;;10461284;28;20204;-87
2023/07/07 13:13:26;;;;;;;2.60;1.30;;;29.20;99.90;;;;;;10474784;28;20200;-87
2023/07/07 13:18:49;;;;;;;2.40;1.30;;;29.30;99.90;;;;;;10487978;28;20215;-95
2023/07/07 13:24:15;;;;;;;1.13;1.05;;;29.10;99.90;;;;;;10455211;28;20307;-87
2023/07/07 13:29:38;;;;;;;0.73;0.73;;;28.90;99.90;;;;;;10475357;28;20235;-89
2023/07/07 13:35:05;;;;;;;0.80;0.80;;;29.00;99.90;;;;;;10446646;28;20199;-92
2023/07/07 13:40:28;;;;;;;0.80;0.77;;;29.20;99.90;;;;;;10447672;28;20283;-91
2023/07/07 13:45:49;;;;;;;1.15;1.05;;;29.00;99.90;;;;;;10434780;28;20236;-92
2023/07/07 13:51:39;;;;;;;1.10;0.75;;;28.50;99.90;;;;;;10446677;28;20238;-93
2023/07/07 13:57:06;;;;;;;2.75;1.00;;;28.60;99.90;;;;;;10447341;28;20239;-90
2023/07/07 14:02:28;;;;;;;1.08;0.98;;;28.50;99.90;;;;;;10474042;28;20283;-91
2023/07/07 14:07:50;;;;;;;2.70;0.90;;;28.50;99.90;;;;;;10433307;28;20207;-92
2023/07/07 14:13:17;;;;;;;1.40;1.02;;;28.40;99.90;;;;;;10423901;28;20521;-92
2023/07/07 14:18:46;;;;;;;0.82;0.80;;;28.20;99.90;;;;;;10496950;28;20231;-91
2023/07/07 14:24:15;;;;;;;2.55;1.63;;;28.00;99.90;;;;;;10441189;28;20238;-89
2023/07/07 14:29:39;;;;;;;1.88;1.10;;;27.80;99.90;;;;;;10408946;28;20279;-88
2023/07/07 14:35:11;;;;;;;2.45;1.27;;;27.70;99.90;;;;;;10439617;28;20207;-89
2023/07/07 14:40:43;;;;;;;0.90;0.70;;;27.60;99.90;;;;;;10440508;28;20255;-87
2023/07/07 14:46:08;;;;;;;1.08;0.80;;;27.50;99.90;;;;;;10432709;28;20236;-83
2023/07/07 14:51:49;;;;;;;1.23;0.70;;;27.60;99.70;;;;;;10455025;28;20263;-85
2023/07/07 14:57:20;;;;;;;1.33;0.93;;;27.60;99.90;;;;;;10484882;28;20199;-84
2023/07/07 15:02:43;;;;;;;0.98;0.82;;;27.50;99.90;;;;;;10455986;28;20223;-85
2023/07/07 15:08:11;;;;;;;2.75;0.90;;;27.40;99.90;;;;;;10499788;28;20445;-86
2023/07/07 15:13:33;;;;;;;1.50;0.80;;;27.20;99.50;;;;;;10485332;28;20204;-84
2023/07/07 15:18:56;;;;;;;0.63;0.52;;;;;;;;;;10436657;28;20234;-84
2023/07/07 15:24:17;;;;;;;0.80;0.80;;;26.90;86.10;;;;;;10473832;28;20232;-83
2023/07/07 15:29:39;;;;;;;1.77;0.90;;;26.70;97.70;;;;;;10475693;28;20190;-86
2023/07/07 15:35:00;;;;;;;6.07;1.00;;;26.60;97.90;;;;;;10479105;28;20425;-84
2023/07/07 15:40:21;;;;;;;2.85;1.00;;;26.40;83.00;;;;;;10441209;28;20284;-84
2023/07/07 15:45:43;;;;;;;1.05;0.80;;;26.40;96.20;;;;;;10440404;28;20409;-84
2023/07/07 15:51:33;;;;;;;1.95;0.70;;;26.30;96.20;;;;;;10439683;28;20323;-85
2023/07/07 15:56:54;;;;;;;2.85;1.00;;;26.30;97.50;;;;;;10450965;28;20200;-84
2023/07/07 16:02:18;;;;;;;1.38;1.10;;;26.20;96.60;;;;;;10466711;28;20192;-84
2023/07/07 16:07:39;;;;;;;2.13;0.80;;;26.00;97.40;;;;;;10477396;28;20206;-84
2023/07/07 16:13:01;;;;;;;1.00;0.90;;;25.90;96.40;;;;;;10466039;28;20202;-83
2023/07/07 16:18:22;;;;;;;0.77;0.77;;;25.70;96.80;;;;;;10465794;28;20208;-84
2023/07/07 16:23:44;;;;;;;2.55;1.10;;;25.70;98.00;;;;;;10434034;28;20232;-83
2023/07/07 16:29:19;;;;;;;3.60;1.10;;;25.60;98.00;;;;;;10424791;28;20196;-84
2023/07/07 16:34:40;;;;;;;1.42;1.30;;;25.50;98.30;;;;;;10467112;28;20372;-84
2023/07/07 16:40:21;;;;;;;2.03;1.13;;;25.20;97.70;;;;;;10458785;28;20200;-84
2023/07/07 16:45:44;;;;;;;2.25;1.45;;;25.20;98.90;;;;;;10453571;28;20223;-83
2023/07/07 16:51:13;;;;;;;1.10;0.95;;;25.00;98.40;;;;;;10478120;28;20231;-83
2023/07/07 16:56:40;;;;;;;2.00;1.27;;;25.00;99.50;;;;;;10517587;28;20222;-84
2023/07/07 17:02:01;;;;;;;2.35;1.00;;;25.00;99.50;;;;;;10491719;28;20198;-83
2023/07/07 17:07:22;;;;;;;1.05;0.88;;;25.00;98.50;;;;;;10469939;28;20305;-84
2023/07/07 17:12:44;;;;;;;1.48;1.00;;;24.80;86.60;;;;;;10428508;28;20496;-84
2023/07/07 17:18:11;;;;;;;1.83;1.30;;;24.70;98.50;;;;;;10457717;28;20632;-85
2023/07/07 17:23:32;;;;;;;1.58;1.10;;;24.70;99.30;;;;;;10459534;28;20239;-85
2023/07/07 17:28:54;;;;;;;1.90;1.40;;;24.70;98.60;;;;;;10463951;28;20199;-84
2023/07/07 17:34:15;;;;;;;1.20;1.08;;;24.70;99.90;;;;;;10463387;28;20538;-83
2023/07/07 17:39:37;;;;;;;1.20;1.10;;;24.60;99.30;;;;;;10418890;28;20212;-83
2023/07/07 17:44:58;;;;;;;2.13;1.17;;;24.60;98.50;;;;;;10442028;28;20529;-83
2023/07/07 17:50:42;;;;;;;1.08;0.90;;;24.50;99.30;;;;;;10475421;28;20228;-83
2023/07/07 17:56:17;;;;;;;2.75;1.40;;;25.30;99.90;;;;;;10477003;28;20192;-83
2023/07/07 18:01:40;;;;;;;1.63;1.50;;;24.30;99.90;;;;;;10470990;28;20269;-83
2023/07/07 18:07:01;;;;;;;1.50;1.17;;;23.90;99.90;;;;;;10462417;28;20255;-83
2023/07/07 18:12:22;;;;;;;2.60;1.50;;;23.80;99.90;;;;;;10476840;28;20557;-83
2023/07/07 18:17:44;;;;;;;1.95;1.50;;;;;;;;;;10457462;28;20241;-83
2023/07/07 18:23:06;;;;;;;2.75;1.70;;;;;;;;;;10448683;28;20462;-84
2023/07/07 18:28:27;;;;;;;6.97;2.10;;;23.30;92.40;;;;;;10430519;28;20443;-83
2023/07/07 18:33:49;;;;;;;3.17;2.20;;;23.10;99.90;;;;;;10467026;28;20278;-84
2023/07/07 18:39:28;;;;;;;6.30;2.67;;;23.00;99.90;;;;;;10476463;28;20222;-83
2023/07/07 18:44:49;;;;;;;4.28;2.15;;;22.80;99.90;;;;;;10470914;28;20246;-84
2023/07/07 18:50:14;;;;;;;9.48;3.88;;;;;;;;;;10456745;28;20252;-83
2023/07/07 18:55:35;;;;;;;8.65;3.53;;;;;;;;;;10466940;28;20202;-84
2023/07/07 19:00:57;;;;;;;6.93;3.20;;;22.40;99.90;;;;;;10511231;28;20552;-84
2023/07/07 19:06:27;;;;;;;7.50;2.83;;;22.10;99.90;;;;;;10475539;28;20462;-83
2023/07/07 19:11:52;;;;;;;7.90;3.03;;;21.90;99.90;;;;;;10459466;28;20231;-83
2023/07/07 19:17:15;;;;;;;6.75;2.00;;;21.80;99.90;;;;;;10425947;28;20311;-83
2023/07/07 19:22:36;;;;;;;6.65;2.03;;;21.70;99.90;;;;;;10441076;28;20262;-84
2023/07/07 19:27:57;;;;;;;5.05;2.25;;;21.60;99.90;;;;;;10456023;28;20208;-84
2023/07/07 19:33:19;;;;;;;3.97;1.98;;;21.50;99.90;;;;;;10470000;28;20196;-83
2023/07/07 19:38:40;;;;;;;3.80;2.00;;;21.30;99.90;;;;;;10480960;28;20207;-83
2023/07/07 19:44:01;;;;;;;4.07;1.70;;;21.20;1.00;;;;;;10467645;28;20440;-83
2023/07/07 19:49:25;;;;;;;4.30;2.45;;;21.00;99.90;;;;;;10481302;28;20228;-83
2023/07/07 19:54:46;;;;;;;8.40;5.68;;;20.90;99.90;;;;;;10457508;28;20227;-83
2023/07/07 20:00:20;;;;;;;8.30;4.35;;;20.80;1.00;;;;;;10482423;28;20191;-83
2023/07/07 20:05:42;;;;;;;10.38;5.00;;;20.60;99.90;;;;;;10425263;28;20539;-83
2023/07/07 20:11:09;;;;;;;8.45;5.18;;;20.60;1.00;;;;;;10442920;28;20192;-83
2023/07/07 20:16:39;;;;;;;4.03;3.03;;;20.50;1.00;;;;;;10466275;28;20239;-83
2023/07/07 20:22:00;;;;;;;3.78;2.70;;;20.40;1.00;;;;;;10494648;28;20188;-85
2023/07/07 20:27:22;;;;;;;3.75;2.70;;;;;;;;;;10446055;28;20331;-85
2023/07/07 20:32:43;;;;;;;7.40;3.10;;;;;;;;;;10462791;28;20198;-85
2023/07/07 20:38:09;;;;;;;6.30;4.07;;;;;;;;;;10478957;28;20537;-85
2023/07/07 20:43:32;;;;;;;6.22;4.20;;;;;;;;;;10427201;28;20228;-85
2023/07/07 20:48:54;;;;;;;7.65;4.32;;;20.00;99.00;;;;;;10451842;28;20295;-84
2023/07/07 20:54:15;;;;;;;4.30;3.22;;;;;;;;;;10448555;28;20227;-84
2023/07/07 20:59:37;;;;;;;4.05;3.08;;;19.60;99.90;;;;;;10423423;28;20203;-84
2023/07/07 21:04:58;;;;;;;5.05;3.10;;;19.60;99.90;;;;;;10476334;28;20215;-84
2023/07/07 21:10:26;;;;;;;6.75;4.20;;;19.50;99.90;;;;;;10458817;28;20418;-84
2023/07/07 21:15:50;;;;;;;5.75;3.85;;;19.40;99.90;;;;;;10463883;28;20279;-84
2023/07/07 21:21:14;;;;;;;6.25;3.80;;;19.20;99.90;;;;;;10477709;28;20533;-84
2023/07/07 21:26:36;;;;;;;6.53;3.38;;;19.20;99.90;;;;;;10448152;28;20307;-84
2023/07/07 21:31:57;;;;;;;6.10;3.67;;;19.10;99.90;;;;;;10454460;28;20191;-84
2023/07/07 21:37:20;;;;;;;9.50;4.68;;;19.10;99.90;;;;;;10474693;28;20279;-85
2023/07/07 21:42:42;;;;;;;8.07;4.93;;;18.90;99.90;;;;;;10421757;28;20196;-84
2023/07/07 21:48:16;;;;;;;8.60;4.80;;;18.80;99.90;;;;;;10421733;28;20515;-84
2023/07/07 21:53:38;;;;;;;8.07;4.75;;;18.70;99.90;;;;;;10459111;28;20207;-84
2023/07/07 21:59:28;;;;;;;7.10;4.88;;;18.80;99.90;;;;;;10504308;28;20195;-84
2023/07/07 22:04:50;;;;;;;15.80;9.32;;;18.60;1.00;;;;;;10476682;28;20283;-84
2023/07/07 22:10:19;;;;;;;12.98;7.65;;;18.50;1.00;;;;;;10463795;28;20218;-84
2023/07/07 22:15:40;;;;;;;10.38;6.85;;;18.40;1.00;;;;;;10456626;28;20382;-84
2023/07/07 22:21:05;;;;;;;11.77;6.68;;;18.20;1.00;;;;;;10490521;28;20270;-84
2023/07/07 22:26:27;;;;;;;10.50;6.65;;;18.10;1.00;;;;;;10457002;28;20235;-85
2023/07/07 22:31:48;;;;;;;9.13;5.95;;;18.00;1.00;;;;;;10476319;28;20417;-84
2023/07/07 22:37:12;;;;;;;10.00;5.93;;;18.00;1.00;;;;;;10447984;28;20206;-84
2023/07/07 22:42:33;;;;;;;7.40;5.05;;;17.90;1.00;;;;;;10439353;28;20196;-84
2023/07/07 22:47:54;;;;;;;13.25;5.65;;;17.90;1.00;;;;;;10435174;28;20291;-84
2023/07/07 22:53:16;;;;;;;7.70;5.35;;;17.80;1.00;;;;;;10451796;28;20235;-84
2023/07/07 22:58:37;;;;;;;10.35;5.15;;;17.70;1.00;;;;;;10442026;28;20209;-84
2023/07/07 23:04:07;;;;;;;14.85;6.40;;;17.60;1.00;;;;;;10456958;28;20220;-84
2023/07/07 23:09:41;;;;;;;11.48;6.90;;;17.60;1.00;;;;;;10444237;28;20205;-84
2023/07/07 23:15:03;;;;;;;17.27;7.63;;;17.60;1.00;;;;;;10453690;28;20195;-84
2023/07/07 23:20:26;;;;;;;11.80;6.97;;;17.50;1.00;;;;;;10478976;28;20217;-83
2023/07/07 23:25:47;;;;;;;9.90;6.13;;;17.50;1.00;;;;;;10482555;28;20219;-84
2023/07/07 23:31:09;;;;;;;8.55;5.57;;;17.50;1.00;;;;;;10468568;28;20192;-85
2023/07/07 23:36:31;;;;;;;8.50;5.97;;;17.40;15.70;;;;;;10480800;28;20219;-83
2023/07/07 23:41:53;;;;;;;7.55;5.45;;;17.30;11.80;;;;;;10482047;28;20214;-83
2023/07/07 23:47:14;;;;;;;10.93;5.65;;;17.30;1.00;;;;;;10467626;28;20227;-84
2023/07/07 23:52:35;;;;;;;9.80;5.90;;;17.10;15.90;;;;;;10452932;28;20538;-84
2023/07/07 23:57:57;;;;;;;9.48;5.53;;;17.00;99.90;;;;;;10440327;28;20193;-84
